Time;durP1;ratioP1;P1;durP2;ratioP2;P2;SDS_P1;SDS_P2;PMS_P1;PMS_P2;Temp;Humidity;BMP_temperature;BMP_pressure;BME280_temperature;BME280_humidity;BME280_pressure;Samples;Min_cycle;Max_cycle;Signal;HPM_P1;HPM_P2
2022/07/02 00:04:32;;;;;;;4.00;3.10;;;20.80;59.30;;;;;;20976636;28;20033;-73
2022/07/02 00:14:33;;;;;;;4.38;2.95;;;20.80;59.50;;;;;;20959672;28;20033;-74
2022/07/02 00:24:39;;;;;;;3.90;2.72;;;20.70;59.70;;;;;;20958274;28;20040;-74
2022/07/02 00:34:40;;;;;;;4.25;3.28;;;20.70;59.90;;;;;;20966751;28;20508;-73
2022/07/02 00:44:40;;;;;;;4.10;3.70;;;20.70;60.00;;;;;;21236844;22;20057;-74
2022/07/02 00:54:41;;;;;;;4.43;3.10;;;20.60;60.00;;;;;;20821150;28;20123;-74
2022/07/02 01:04:41;;;;;;;6.70;4.00;;;20.60;60.00;;;;;;20790891;28;20044;-74
2022/07/02 01:14:42;;;;;;;3.30;2.78;;;20.60;60.10;;;;;;20766303;28;20037;-74
2022/07/02 01:24:43;;;;;;;5.00;3.03;;;20.50;59.90;;;;;;20785005;28;20057;-74
2022/07/02 01:34:48;;;;;;;5.30;3.50;;;20.50;59.80;;;;;;20731697;28;20041;-74
2022/07/02 01:44:48;;;;;;;3.55;2.90;;;20.50;59.70;;;;;;20780889;28;20045;-73
2022/07/02 01:54:49;;;;;;;4.38;2.47;;;20.40;59.40;;;;;;20784619;28;20045;-74
2022/07/02 02:04:50;;;;;;;3.20;2.10;;;20.30;59.10;;;;;;20776218;28;20037;-74
2022/07/02 02:14:50;;;;;;;3.60;2.00;;;20.30;59.00;;;;;;20776264;28;20033;-76
2022/07/02 02:24:51;;;;;;;2.25;1.80;;;20.20;58.70;;;;;;20772770;28;20229;-75
2022/07/02 02:34:51;;;;;;;1.80;1.23;;;20.20;58.70;;;;;;20747009;28;20041;-74
2022/07/02 02:44:52;;;;;;;2.28;1.67;;;20.20;58.60;;;;;;20751009;28;20441;-74
2022/07/02 02:54:52;;;;;;;1.50;1.35;;;20.20;58.70;;;;;;20782807;28;20461;-74
2022/07/02 03:04:53;;;;;;;2.20;1.48;;;20.10;58.60;;;;;;20777127;28;20076;-73
2022/07/02 03:14:54;;;;;;;1.45;1.13;;;20.00;58.40;;;;;;20768039;28;20041;-73
2022/07/02 03:24:54;;;;;;;1.25;1.10;;;19.90;58.10;;;;;;20732118;28;20164;-75
2022/07/02 03:34:58;;;;;;;3.38;1.20;;;19.90;57.90;;;;;;20794042;28;20045;-75
2022/07/02 03:44:58;;;;;;;3.67;1.35;;;19.80;57.80;;;;;;20789308;28;20583;-74
2022/07/02 03:54:59;;;;;;;2.17;1.67;;;19.80;57.80;;;;;;20793612;28;20041;-74
2022/07/02 04:04:59;;;;;;;1.95;1.55;;;19.70;57.90;;;;;;20766146;28;20033;-74
2022/07/02 04:15:00;;;;;;;1.67;1.48;;;19.70;58.00;;;;;;20768815;28;20121;-75
2022/07/02 04:25:00;;;;;;;3.15;2.08;;;19.70;58.20;;;;;;20754224;28;20169;-74
2022/07/02 04:35:01;;;;;;;3.20;1.92;;;19.70;59.10;;;;;;20738631;28;20030;-73
2022/07/02 04:45:02;;;;;;;2.28;1.77;;;19.70;58.70;;;;;;20764341;28;20136;-74
2022/07/02 04:55:03;;;;;;;3.42;2.35;;;19.70;59.20;;;;;;20764793;28;20029;-74
2022/07/02 05:05:04;;;;;;;5.97;2.20;;;19.70;59.60;;;;;;20785377;28;20032;-74
2022/07/02 05:15:05;;;;;;;2.42;1.85;;;19.70;60.00;;;;;;20787807;28;20037;-74
2022/07/02 05:25:05;;;;;;;3.35;1.65;;;19.70;60.30;;;;;;20730378;28;20037;-73
2022/07/02 05:35:06;;;;;;;5.60;2.15;;;19.70;60.30;;;;;;20744660;28;20088;-75
2022/07/02 05:45:07;;;;;;;2.00;1.70;;;19.80;60.60;;;;;;20758882;28;20036;-71
2022/07/02 05:55:08;;;;;;;1.35;1.25;;;19.80;61.20;;;;;;20782620;28;20037;-69
2022/07/02 06:15:28;;;;;;;6.07;1.50;;;20.00;60.80;;;;;;20780752;28;20041;-71
2022/07/02 06:25:28;;;;;;;2.53;1.50;;;20.00;61.00;;;;;;20777511;28;20073;-72
2022/07/02 06:35:29;;;;;;;5.50;1.67;;;20.10;60.90;;;;;;20754256;28;20439;-72
2022/07/02 06:45:29;;;;;;;2.58;1.30;;;20.20;60.90;;;;;;20758592;28;20045;-73
2022/07/02 06:55:30;;;;;;;2.50;1.30;;;20.30;60.80;;;;;;20822460;28;20033;-75
2022/07/02 07:05:32;;;;;;;1.77;1.00;;;20.40;60.60;;;;;;20780833;28;20456;-75
2022/07/02 07:15:32;;;;;;;3.70;1.42;;;20.40;60.30;;;;;;20770721;28;20650;-75
2022/07/02 07:25:33;;;;;;;2.00;0.80;;;20.50;60.30;;;;;;20743839;28;20034;-72
2022/07/02 07:35:33;;;;;;;2.50;0.85;;;20.50;60.20;;;;;;20756067;28;20731;-74
2022/07/02 07:45:34;;;;;;;6.78;1.50;;;20.70;60.20;;;;;;20771745;28;20442;-75
2022/07/02 07:55:35;;;;;;;4.90;1.30;;;20.80;60.10;;;;;;20800959;28;20041;-73
2022/07/02 08:05:36;;;;;;;2.90;0.90;;;20.90;59.80;;;;;;20755845;28;20116;-73
2022/07/02 08:15:36;;;;;;;6.28;1.00;;;20.90;59.10;;;;;;20770356;28;20049;-75
2022/07/02 08:25:37;;;;;;;3.42;0.68;;;20.90;58.70;;;;;;20746765;28;20526;-73
2022/07/02 08:35:37;;;;;;;4.55;0.75;;;21.00;58.30;;;;;;20737295;28;20025;-74
2022/07/02 08:45:39;;;;;;;3.95;1.70;;;21.00;58.30;;;;;;20771018;28;20041;-73
2022/07/02 08:55:40;;;;;;;3.03;1.20;;;21.10;58.20;;;;;;20779425;28;20030;-74
2022/07/02 09:05:41;;;;;;;3.28;0.80;;;21.10;58.20;;;;;;20752975;28;20476;-74
2022/07/02 09:15:43;;;;;;;1.17;0.80;;;21.00;58.30;;;;;;20760913;28;20042;-75
2022/07/02 09:25:47;;;;;;;1.63;0.50;;;21.10;58.30;;;;;;20721201;28;20291;-75
2022/07/02 09:35:48;;;;;;;11.27;2.95;;;21.10;58.40;;;;;;20748925;28;20038;-77
2022/07/02 09:45:49;;;;;;;53.40;7.43;;;21.10;58.30;;;;;;20797027;28;20045;-79
2022/07/02 09:55:50;;;;;;;23.40;4.00;;;21.30;58.40;;;;;;20779344;28;20029;-76
2022/07/02 10:05:54;;;;;;;122.88;14.05;;;21.30;58.40;;;;;;20743900;28;20038;-75
2022/07/02 10:15:59;;;;;;;37.07;5.67;;;21.50;58.50;;;;;;20722213;28;20035;-74
2022/07/02 10:25:59;;;;;;;26.50;4.30;;;21.60;58.50;;;;;;20741634;28;20037;-73
2022/07/02 10:36:01;;;;;;;19.75;3.17;;;21.50;58.40;;;;;;20743843;28;20423;-80
2022/07/02 10:46:06;;;;;;;4.82;1.70;;;21.50;58.50;;;;;;20766863;28;20510;-76
2022/07/02 10:56:07;;;;;;;2.80;1.40;;;21.50;58.50;;;;;;20752248;28;20037;-75
2022/07/02 11:06:20;;;;;;;3.20;0.98;;;21.50;58.60;;;;;;20734849;28;20330;-76
2022/07/02 11:16:27;;;;;;;1.48;0.82;;;21.50;58.60;;;;;;20736403;28;20049;-75
2022/07/02 11:26:28;;;;;;;1.17;0.43;;;21.50;58.30;;;;;;20793034;28;20025;-75
2022/07/02 11:36:28;;;;;;;1.45;0.52;;;21.50;58.40;;;;;;20773655;28;20061;-71
2022/07/02 11:46:29;;;;;;;1.13;0.45;;;21.50;58.50;;;;;;20774344;28;20547;-72
2022/07/02 11:56:32;;;;;;;2.65;0.63;;;21.50;58.60;;;;;;20762987;28;20474;-78
2022/07/02 12:06:37;;;;;;;1.15;0.50;;;21.70;58.80;;;;;;20737004;28;20034;-74
2022/07/02 12:16:42;;;;;;;1.00;0.50;;;21.60;58.70;;;;;;20769881;28;20044;-75
2022/07/02 12:26:43;;;;;;;0.95;0.60;;;21.70;58.80;;;;;;20772553;28;20033;-71
2022/07/02 12:37:02;;;;;;;0.90;0.30;;;21.60;58.60;;;;;;20779976;28;20064;-72
2022/07/02 12:47:03;;;;;;;2.85;0.40;;;21.70;58.80;;;;;;20789145;28;20025;-72
2022/07/02 12:57:14;;;;;;;1.00;0.32;;;21.70;58.80;;;;;;20807291;28;20394;-73
2022/07/02 13:07:15;;;;;;;2.65;0.43;;;21.70;58.80;;;;;;20749411;28;20037;-74
2022/07/02 13:17:15;;;;;;;2.25;0.60;;;21.80;58.80;;;;;;20716940;28;20156;-74
2022/07/02 13:27:16;;;;;;;6.90;0.70;;;21.90;58.80;;;;;;20747204;28;20129;-77
2022/07/02 13:37:16;;;;;;;4.95;0.30;;;22.00;58.80;;;;;;20710382;28;20296;-71
2022/07/02 13:47:18;;;;;;;2.05;0.45;;;21.90;58.60;;;;;;20768929;28;20040;-77
2022/07/02 13:57:18;;;;;;;2.30;0.75;;;22.10;58.60;;;;;;20837232;28;20025;-75
2022/07/02 14:07:19;;;;;;;6.55;0.73;;;22.20;58.50;;;;;;20733804;28;20044;-72
2022/07/02 14:17:19;;;;;;;8.07;0.50;;;22.30;58.30;;;;;;20791707;28;20353;-73
2022/07/02 14:27:20;;;;;;;0.50;0.30;;;22.40;58.10;;;;;;20761331;28;20073;-74
2022/07/02 14:37:23;;;;;;;3.83;0.80;;;22.50;57.90;;;;;;20748206;28;20355;-75
2022/07/02 14:47:23;;;;;;;2.13;1.02;;;22.60;57.90;;;;;;20796861;28;20090;-75
2022/07/02 14:57:24;;;;;;;45.78;4.18;;;22.70;57.80;;;;;;20804866;28;20443;-76
2022/07/02 15:07:24;;;;;;;20.60;4.53;;;22.80;57.80;;;;;;20839296;28;20563;-75
2022/07/02 15:17:25;;;;;;;21.77;2.80;;;23.00;57.70;;;;;;20749421;28;20048;-79
2022/07/02 15:27:25;;;;;;;8.45;1.80;;;23.10;57.60;;;;;;20741242;28;20038;-79
2022/07/02 15:37:26;;;;;;;3.20;1.23;;;23.20;57.50;;;;;;20736581;28;20049;-77
2022/07/02 15:47:26;;;;;;;3.22;1.00;;;23.20;57.20;;;;;;20777146;28;20495;-79
2022/07/02 15:57:43;;;;;;;2.45;0.77;;;23.40;57.10;;;;;;20814416;28;20468;-78
2022/07/02 16:07:48;;;;;;;1.55;0.63;;;23.40;56.90;;;;;;20764796;28;20491;-75
2022/07/02 16:17:49;;;;;;;11.30;1.20;;;23.50;56.90;;;;;;20783418;28;20043;-79
2022/07/02 16:27:50;;;;;;;4.55;1.33;;;23.50;56.70;;;;;;20761351;28;20030;-76
2022/07/02 16:37:52;;;;;;;1.80;0.80;;;23.60;56.70;;;;;;20786683;28;20534;-76
2022/07/02 16:47:53;;;;;;;2.30;0.95;;;23.60;56.70;;;;;;20770097;28;20041;-76
2022/07/02 16:57:55;;;;;;;2.55;1.05;;;23.60;56.70;;;;;;20798385;28;20477;-79
2022/07/02 17:07:57;;;;;;;7.30;1.02;;;23.50;56.70;;;;;;20736245;28;20033;-74
2022/07/02 17:17:58;;;;;;;7.88;1.17;;;23.50;56.60;;;;;;20764236;28;20084;-75
2022/07/02 17:27:58;;;;;;;10.00;0.93;;;23.50;56.50;;;;;;20732148;28;20042;-75
2022/07/02 17:37:59;;;;;;;6.22;1.13;;;23.60;55.80;;;;;;20762878;28;20050;-75
2022/07/02 17:48:01;;;;;;;7.60;0.80;;;23.50;55.20;;;;;;20769670;28;20119;-75
2022/07/02 17:58:05;;;;;;;1.80;0.70;;;23.50;55.30;;;;;;20746758;28;20038;-74
2022/07/02 18:08:06;;;;;;;6.78;1.00;;;23.50;55.60;;;;;;20740235;28;20034;-74
2022/07/02 18:18:07;;;;;;;1.63;0.50;;;23.50;55.80;;;;;;20761297;28;20060;-75
2022/07/02 18:28:07;;;;;;;3.45;0.63;;;23.50;55.70;;;;;;20748995;28;20050;-75
2022/07/02 18:38:08;;;;;;;3.92;1.00;;;23.40;55.30;;;;;;20772195;28;20021;-75
2022/07/02 18:48:09;;;;;;;2.53;0.43;;;23.30;55.60;;;;;;20788128;28;20504;-75
2022/07/02 18:58:10;;;;;;;3.47;1.00;;;23.30;56.00;;;;;;20755898;28;20025;-75
2022/07/02 19:08:10;;;;;;;5.30;0.80;;;23.20;56.40;;;;;;20784593;28;20037;-75
2022/07/02 19:18:11;;;;;;;1.67;0.50;;;23.20;56.90;;;;;;20757259;28;20029;-75
2022/07/02 19:38:30;;;;;;;1.83;0.50;;;23.10;55.00;;;;;;20762624;28;20120;-75
2022/07/02 19:48:31;;;;;;;1.58;0.57;;;23.00;54.90;;;;;;20795183;28;20538;-76
2022/07/02 19:58:32;;;;;;;0.70;0.60;;;22.90;55.30;;;;;;20772314;28;20033;-76
2022/07/02 20:08:33;;;;;;;0.95;0.55;;;22.80;55.60;;;;;;20749523;28;20041;-75
2022/07/02 20:18:34;;;;;;;0.77;0.60;;;22.80;55.60;;;;;;20786084;28;20050;-76
2022/07/02 20:28:35;;;;;;;2.00;0.40;;;22.70;55.60;;;;;;20759817;28;20033;-77
2022/07/02 20:38:36;;;;;;;2.70;0.70;;;22.70;55.70;;;;;;20734358;28;20846;-76
2022/07/02 20:48:36;;;;;;;1.60;0.77;;;22.60;55.60;;;;;;20766709;28;20172;-76
2022/07/02 20:58:37;;;;;;;0.93;0.60;;;22.50;55.60;;;;;;20777866;28;20635;-77
2022/07/02 21:08:37;;;;;;;0.75;0.45;;;22.50;55.70;;;;;;20764822;28;20391;-77
2022/07/02 21:18:38;;;;;;;2.22;0.90;;;22.40;55.80;;;;;;20737689;28;20030;-77
2022/07/02 21:28:39;;;;;;;1.38;0.60;;;22.40;55.90;;;;;;20774122;28;20120;-77
2022/07/02 21:38:39;;;;;;;0.85;0.40;;;22.30;55.90;;;;;;20730934;28;20034;-77
2022/07/02 21:48:40;;;;;;;1.48;0.90;;;22.30;55.80;;;;;;20797576;28;20037;-77
2022/07/02 21:58:41;;;;;;;1.15;0.60;;;22.30;55.80;;;;;;20742271;28;20030;-77
2022/07/02 22:08:41;;;;;;;3.03;0.80;;;22.30;55.80;;;;;;20730701;28;20063;-77
2022/07/02 22:18:42;;;;;;;1.87;0.70;;;22.20;55.80;;;;;;20774750;28;20022;-77
2022/07/02 22:28:42;;;;;;;1.88;0.80;;;22.20;55.80;;;;;;20733981;28;20730;-78
2022/07/02 22:38:43;;;;;;;0.50;0.50;;;22.20;55.80;;;;;;20730696;28;20415;-77
2022/07/02 22:48:43;;;;;;;1.70;0.88;;;22.10;55.70;;;;;;20783208;28;20539;-77
2022/07/02 22:58:45;;;;;;;1.08;0.68;;;22.10;55.70;;;;;;20749967;28;20052;-77
2022/07/02 23:08:46;;;;;;;3.00;0.85;;;22.10;55.70;;;;;;20756814;28;20120;-77
2022/07/02 23:18:46;;;;;;;0.80;0.70;;;22.10;55.70;;;;;;20749958;28;20068;-77
2022/07/02 23:28:47;;;;;;;5.63;0.68;;;22.00;55.60;;;;;;20741117;28;20041;-77
2022/07/02 23:38:48;;;;;;;1.15;0.60;;;22.00;55.60;;;;;;20740355;28;20033;-77
2022/07/02 23:48:48;;;;;;;1.63;1.00;;;22.00;55.60;;;;;;20757483;28;20133;-78
2022/07/02 23:58:49;;;;;;;2.15;0.70;;;21.90;55.60;;;;;;20784175;28;20026;-77
